createdAt,value
2022-08-05T00:01:36.168Z,21.90
2022-08-05T00:04:16.451Z,21.90
2022-08-05T00:06:44.556Z,21.90
2022-08-05T00:09:19.666Z,21.90
2022-08-05T00:11:55.382Z,22.00
2022-08-05T00:14:27.570Z,21.90
2022-08-05T00:16:57.382Z,21.90
2022-08-05T00:19:32.792Z,21.90
2022-08-05T00:22:02.386Z,21.80
2022-08-05T00:24:31.661Z,21.70
2022-08-05T00:26:59.587Z,21.70
2022-08-05T00:29:37.970Z,21.70
2022-08-05T00:32:12.382Z,21.60
2022-08-05T00:35:05.809Z,21.60
2022-08-05T00:37:50.751Z,21.60
2022-08-05T00:40:27.149Z,21.60
2022-08-05T00:42:57.955Z,21.50
2022-08-05T00:45:38.765Z,21.50
2022-08-05T00:48:07.824Z,21.40
2022-08-05T00:50:36.039Z,21.40
2022-08-05T00:53:09.914Z,21.40
2022-08-05T00:55:53.874Z,21.30
2022-08-05T00:58:21.755Z,21.20
2022-08-05T01:00:55.998Z,21.20
2022-08-05T01:03:24.211Z,21.20
2022-08-05T01:05:59.131Z,21.10
2022-08-05T01:08:40.002Z,20.90
2022-08-05T01:11:22.258Z,20.90
2022-08-05T01:14:09.006Z,21.00
2022-08-05T01:16:42.480Z,21.00
2022-08-05T01:19:36.734Z,20.90
2022-08-05T01:22:28.059Z,20.90
2022-08-05T01:25:19.517Z,20.90
2022-08-05T01:28:17.927Z,20.80
2022-08-05T01:30:55.150Z,20.70
2022-08-05T01:33:29.541Z,20.70
2022-08-05T01:36:08.473Z,20.60
2022-08-05T01:38:42.004Z,20.50
2022-08-05T01:41:12.312Z,20.60
2022-08-05T01:43:44.423Z,20.60
2022-08-05T01:46:42.119Z,20.70
2022-08-05T01:49:23.426Z,20.70
2022-08-05T01:51:58.428Z,20.70
2022-08-05T01:54:31.012Z,20.80
2022-08-05T01:58:11.341Z,20.70
2022-08-05T01:59:51.882Z,20.70
2022-08-05T02:02:28.517Z,20.70
2022-08-05T02:05:00.888Z,20.70
2022-08-05T02:07:32.086Z,20.70
2022-08-05T02:10:02.507Z,20.70
2022-08-05T02:12:37.950Z,20.70
2022-08-05T02:15:12.446Z,20.70
2022-08-05T02:18:31.819Z,20.80
2022-08-05T02:20:45.017Z,20.80
2022-08-05T02:23:15.674Z,20.80
2022-08-05T02:25:49.229Z,20.80
2022-08-05T02:28:29.195Z,20.80
2022-08-05T02:31:07.587Z,20.80
2022-08-05T02:33:40.505Z,20.90
2022-08-05T02:36:13.737Z,21.00
2022-08-05T02:38:53.268Z,21.00
2022-08-05T02:41:23.656Z,21.10
2022-08-05T02:44:02.346Z,21.10
2022-08-05T02:46:53.799Z,21.10
2022-08-05T02:49:27.425Z,21.00
2022-08-05T02:52:08.793Z,21.00
2022-08-05T02:54:41.461Z,21.10
2022-08-05T02:58:09.708Z,21.00
2022-08-05T03:00:02.298Z,21.10
2022-08-05T03:02:35.756Z,21.20
2022-08-05T03:05:05.905Z,21.10
2022-08-05T03:08:00.257Z,21.20
2022-08-05T03:10:25.305Z,21.10
2022-08-05T03:12:54.535Z,21.10
2022-08-05T03:15:24.160Z,21.00
2022-08-05T03:17:55.874Z,21.00
2022-08-05T03:20:24.468Z,21.00
2022-08-05T03:22:55.364Z,20.90
2022-08-05T03:25:33.392Z,20.90
2022-08-05T03:28:18.805Z,20.80
2022-08-05T03:30:49.402Z,20.70
2022-08-05T03:33:18.835Z,20.70
2022-08-05T03:35:47.980Z,20.70
2022-08-05T03:38:17.021Z,20.70
2022-08-05T03:40:53.228Z,20.60
2022-08-05T03:44:09.830Z,20.60
2022-08-05T03:46:13.653Z,20.60
2022-08-05T03:48:45.243Z,20.60
2022-08-05T03:52:37.186Z,20.70
2022-08-05T03:55:50.065Z,20.60
2022-08-05T03:56:58.935Z,20.70
2022-08-05T03:59:47.411Z,20.60
2022-08-05T04:02:38.189Z,20.60
2022-08-05T04:05:11.114Z,20.60
2022-08-05T04:07:57.375Z,20.50
2022-08-05T04:10:28.315Z,20.50
2022-08-05T04:13:00.434Z,20.60
2022-08-05T04:15:33.224Z,20.60
2022-08-05T04:18:06.964Z,20.60
2022-08-05T04:20:37.372Z,20.60
2022-08-05T04:23:05.463Z,20.60
2022-08-05T04:25:56.500Z,20.60
2022-08-05T04:28:30.577Z,20.70
2022-08-05T04:30:59.061Z,20.60
2022-08-05T04:34:17.041Z,20.70
2022-08-05T04:36:46.443Z,20.70
2022-08-05T04:39:07.615Z,20.70
2022-08-05T04:41:37.185Z,20.60
2022-08-05T04:44:09.266Z,20.60
2022-08-05T04:46:38.258Z,20.60
2022-08-05T04:49:12.368Z,20.70
2022-08-05T04:51:44.249Z,21.10
2022-08-05T04:54:12.470Z,21.60
2022-08-05T04:56:40.648Z,22.10
2022-08-05T04:59:21.512Z,22.90
2022-08-05T05:02:07.853Z,23.20
2022-08-05T05:04:44.111Z,23.40
2022-08-05T05:07:17.323Z,24.40
2022-08-05T05:09:45.360Z,25.10
2022-08-05T05:12:13.270Z,25.90
2022-08-05T05:14:49.385Z,26.50
2022-08-05T05:17:23.697Z,27.30
2022-08-05T05:19:56.601Z,27.70
2022-08-05T05:22:26.897Z,28.60
2022-08-05T05:24:57.758Z,29.10
2022-08-05T05:27:41.233Z,29.50
2022-08-05T05:30:29.830Z,29.90
2022-08-05T05:33:01.225Z,30.60
2022-08-05T05:35:42.713Z,31.20
2022-08-05T05:38:13.398Z,31.40
2022-08-05T05:40:48.074Z,31.40
2022-08-05T05:43:22.432Z,31.50
2022-08-05T05:46:10.614Z,31.70
2022-08-05T05:48:44.037Z,32.00
2022-08-05T05:51:15.469Z,32.50
2022-08-05T05:53:54.597Z,32.80
2022-08-05T05:56:32.917Z,33.70
2022-08-05T05:59:03.137Z,34.10
2022-08-05T06:01:37.728Z,34.30
2022-08-05T06:04:12.003Z,34.30
2022-08-05T06:06:42.424Z,34.70
2022-08-05T06:09:17.370Z,35.20
2022-08-05T06:12:02.080Z,36.30
2022-08-05T06:14:31.188Z,36.70
2022-08-05T06:16:59.173Z,35.60
2022-08-05T06:19:34.658Z,33.60
2022-08-05T06:22:03.724Z,32.00
2022-08-05T06:24:33.199Z,30.60
2022-08-05T06:27:04.108Z,31.20
2022-08-05T06:29:46.736Z,33.10
2022-08-05T06:32:25.146Z,34.50
2022-08-05T06:34:56.698Z,35.10
2022-08-05T06:37:57.826Z,35.60
2022-08-05T06:40:18.531Z,36.00
2022-08-05T06:42:51.682Z,36.20
2022-08-05T06:45:45.008Z,36.40
2022-08-05T06:48:46.859Z,37.20
2022-08-05T06:50:57.265Z,36.50
2022-08-05T06:53:28.438Z,35.00
2022-08-05T06:55:59.297Z,36.20
2022-08-05T06:58:35.448Z,37.20
2022-08-05T07:01:07.075Z,38.20
2022-08-05T07:03:35.644Z,37.40
2022-08-05T07:06:05.713Z,36.10
2022-08-05T07:08:42.104Z,36.30
2022-08-05T07:11:15.037Z,36.70
2022-08-05T07:14:00.855Z,36.10
2022-08-05T07:18:00.012Z,34.70
2022-08-05T07:22:28.291Z,32.40
2022-08-05T07:24:58.676Z,32.20
2022-08-05T07:27:57.161Z,31.90
2022-08-05T07:30:28.132Z,31.60
2022-08-05T07:32:58.856Z,30.60
2022-08-05T07:36:03.138Z,29.90
2022-08-05T07:38:25.411Z,29.80
2022-08-05T07:41:16.484Z,29.90
2022-08-05T07:43:51.471Z,30.30
2022-08-05T07:46:25.156Z,30.60
2022-08-05T07:49:02.504Z,31.00
2022-08-05T07:51:40.826Z,32.00
2022-08-05T07:54:23.316Z,32.60
2022-08-05T07:57:02.367Z,34.30
2022-08-05T07:59:44.460Z,35.60
2022-08-05T08:02:16.589Z,37.10
2022-08-05T08:04:47.560Z,37.40
2022-08-05T08:07:22.212Z,37.20
2022-08-05T08:09:53.111Z,37.20
2022-08-05T08:12:35.549Z,37.30
2022-08-05T08:15:15.482Z,37.20
2022-08-05T08:17:49.914Z,37.30
2022-08-05T08:20:43.455Z,38.10
2022-08-05T08:23:20.963Z,37.90
2022-08-05T08:25:59.733Z,38.60
2022-08-05T08:28:36.808Z,37.90
2022-08-05T08:31:18.207Z,38.30
2022-08-05T08:33:46.944Z,38.00
2022-08-05T08:36:38.405Z,37.90
2022-08-05T08:39:15.801Z,38.60
2022-08-05T08:41:52.275Z,39.10
2022-08-05T08:45:17.855Z,38.70
2022-08-05T08:48:06.327Z,39.00
2022-08-05T08:50:30.637Z,39.00
2022-08-05T08:53:12.375Z,38.20
2022-08-05T08:56:02.705Z,37.50
2022-08-05T08:58:43.548Z,38.10
2022-08-05T09:01:17.502Z,38.00
2022-08-05T09:03:54.547Z,39.00
2022-08-05T09:06:28.108Z,39.30
2022-08-05T09:08:59.716Z,39.70
2022-08-05T09:11:51.672Z,40.40
2022-08-05T09:14:58.879Z,39.10
2022-08-05T09:17:09.380Z,37.70
2022-08-05T09:20:01.748Z,36.80
2022-08-05T09:22:31.942Z,38.40
2022-08-05T09:25:01.950Z,39.50
2022-08-05T09:28:05.874Z,39.70
2022-08-05T09:30:35.030Z,39.20
2022-08-05T09:33:04.726Z,38.90
2022-08-05T09:35:34.305Z,39.60
2022-08-05T09:38:17.629Z,40.30
2022-08-05T09:40:52.534Z,39.90
2022-08-05T09:43:40.710Z,39.20
2022-08-05T09:46:27.492Z,39.40
2022-08-05T09:49:07.199Z,40.00
2022-08-05T09:51:39.937Z,40.70
2022-08-05T09:54:10.151Z,41.60
2022-08-05T09:56:40.169Z,42.60
2022-08-05T09:59:19.607Z,41.50
2022-08-05T10:01:48.073Z,40.50
2022-08-05T10:04:38.553Z,40.30
2022-08-05T10:07:20.897Z,39.90
2022-08-05T10:10:13.991Z,40.30
2022-08-05T10:12:49.595Z,39.50
2022-08-05T10:15:26.841Z,40.70
2022-08-05T10:18:10.813Z,40.80
2022-08-05T10:20:42.668Z,39.20
2022-08-05T10:23:34.339Z,39.10
2022-08-05T10:26:06.958Z,38.70
2022-08-05T10:28:36.417Z,40.40
2022-08-05T10:32:54.802Z,41.60
2022-08-05T10:33:54.071Z,40.70
2022-08-05T10:36:43.117Z,40.30
2022-08-05T10:39:24.310Z,40.90
2022-08-05T10:42:01.480Z,40.80
2022-08-05T10:44:32.317Z,40.90
2022-08-05T10:47:26.107Z,41.80
2022-08-05T10:50:20.856Z,42.70
2022-08-05T10:53:00.009Z,43.00
2022-08-05T10:55:30.534Z,43.70
2022-08-05T10:58:11.412Z,42.90
2022-08-05T11:00:46.613Z,42.90
2022-08-05T11:03:23.762Z,43.60
2022-08-05T11:06:16.115Z,42.40
2022-08-05T11:09:16.723Z,42.60
2022-08-05T11:11:53.251Z,41.50
2022-08-05T11:14:57.752Z,43.00
2022-08-05T11:17:56.870Z,42.60
2022-08-05T11:20:44.669Z,41.80
2022-08-05T11:23:33.444Z,42.90
2022-08-05T11:26:32.062Z,42.50
2022-08-05T11:29:06.920Z,42.20
2022-08-05T11:31:57.972Z,41.60
2022-08-05T11:34:51.638Z,42.10
2022-08-05T11:38:29.002Z,42.20
2022-08-05T11:41:34.775Z,42.20
2022-08-05T11:44:04.492Z,43.00
2022-08-05T11:47:09.829Z,43.10
2022-08-05T11:49:27.692Z,42.50
2022-08-05T11:51:57.696Z,40.40
2022-08-05T11:54:33.525Z,39.90
2022-08-05T11:57:08.867Z,39.10
2022-08-05T11:59:53.120Z,38.60
2022-08-05T12:02:31.367Z,38.40
2022-08-05T12:05:07.292Z,38.50
2022-08-05T12:08:03.227Z,38.10
2022-08-05T12:10:45.104Z,37.50
2022-08-05T12:13:27.924Z,37.00
2022-08-05T12:16:14.110Z,36.40
2022-08-05T12:18:52.250Z,36.10
2022-08-05T12:21:23.971Z,35.70
2022-08-05T12:24:00.058Z,36.30
2022-08-05T12:26:33.349Z,36.60
2022-08-05T12:29:03.141Z,36.50
2022-08-05T12:31:46.075Z,36.10
2022-08-05T12:34:23.543Z,36.20
2022-08-05T12:36:53.292Z,35.90
2022-08-05T12:39:21.671Z,36.10
2022-08-05T12:41:58.182Z,36.20
2022-08-05T12:44:33.606Z,36.00
2022-08-05T12:47:04.154Z,35.90
2022-08-05T12:50:04.747Z,35.30
2022-08-05T12:52:38.621Z,35.10
2022-08-05T12:55:22.268Z,34.60
2022-08-05T12:58:38.393Z,34.50
2022-08-05T13:02:00.870Z,34.80
2022-08-05T13:03:33.508Z,35.30
2022-08-05T13:06:03.164Z,35.20
2022-08-05T13:08:32.424Z,34.90
2022-08-05T13:11:02.385Z,34.80
2022-08-05T13:14:05.201Z,34.80
2022-08-05T13:16:20.823Z,34.30
2022-08-05T13:18:55.214Z,34.20
2022-08-05T13:21:38.138Z,34.00
2022-08-05T13:24:27.680Z,33.70
2022-08-05T13:27:05.570Z,33.80
2022-08-05T13:29:39.181Z,34.00
2022-08-05T13:32:34.060Z,34.30
2022-08-05T13:35:04.448Z,34.80
2022-08-05T13:37:35.292Z,34.90
2022-08-05T13:40:14.314Z,34.60
2022-08-05T13:42:45.195Z,34.50
2022-08-05T13:45:13.782Z,34.20
2022-08-05T13:48:08.671Z,33.80
2022-08-05T13:50:36.615Z,33.80
2022-08-05T13:53:08.997Z,33.40
2022-08-05T13:55:50.265Z,34.10
2022-08-05T13:58:30.895Z,34.60
2022-08-05T14:00:59.599Z,35.10
2022-08-05T14:03:28.554Z,35.10
2022-08-05T14:06:24.868Z,34.30
2022-08-05T14:08:45.414Z,33.60
2022-08-05T14:11:20.581Z,33.30
2022-08-05T14:13:54.948Z,33.60
2022-08-05T14:16:25.439Z,33.70
2022-08-05T14:18:53.554Z,33.90
2022-08-05T14:22:07.220Z,33.70
2022-08-05T14:24:12.451Z,33.60
2022-08-05T14:27:02.271Z,33.40
2022-08-05T14:29:35.536Z,33.40
2022-08-05T14:32:16.014Z,33.20
2022-08-05T14:34:51.446Z,33.60
2022-08-05T14:37:19.763Z,33.60
2022-08-05T14:39:56.978Z,34.00
2022-08-05T14:42:26.974Z,33.90
2022-08-05T14:44:56.579Z,34.30
2022-08-05T14:48:02.840Z,34.10
2022-08-05T14:50:18.418Z,33.80
2022-08-05T14:52:53.560Z,33.70
2022-08-05T14:55:38.546Z,33.30
2022-08-05T14:58:11.595Z,33.10
2022-08-05T15:00:59.321Z,33.10
2022-08-05T15:03:33.746Z,33.10
2022-08-05T15:06:07.577Z,32.90
2022-08-05T15:08:59.117Z,33.00
2022-08-05T15:11:52.564Z,33.00
2022-08-05T15:14:34.887Z,32.80
2022-08-05T15:17:09.801Z,32.80
2022-08-05T15:19:49.171Z,32.70
2022-08-05T15:22:21.544Z,32.00
2022-08-05T15:24:54.864Z,32.10
2022-08-05T15:27:25.694Z,32.10
2022-08-05T15:29:56.603Z,32.30
2022-08-05T15:32:27.287Z,32.30
2022-08-05T15:34:57.092Z,32.30
2022-08-05T15:38:33.631Z,32.30
2022-08-05T15:41:00.836Z,32.30
2022-08-05T15:43:11.211Z,32.50
2022-08-05T15:46:00.626Z,32.70
2022-08-05T15:48:30.043Z,32.30
2022-08-05T15:51:03.600Z,32.30
2022-08-05T15:53:38.078Z,32.00
2022-08-05T15:56:18.581Z,31.70
2022-08-05T15:58:48.519Z,31.50
2022-08-05T16:01:18.032Z,31.50
2022-08-05T16:03:48.548Z,31.60
2022-08-05T16:06:20.254Z,31.70
2022-08-05T16:08:51.111Z,31.80
2022-08-05T16:11:42.635Z,31.80
2022-08-05T16:14:17.055Z,31.70
2022-08-05T16:16:46.261Z,31.70
2022-08-05T16:19:25.520Z,31.70
2022-08-05T16:22:03.082Z,31.60
2022-08-05T16:24:41.293Z,31.70
2022-08-05T16:27:18.951Z,31.70
2022-08-05T16:29:51.111Z,31.80
2022-08-05T16:32:28.803Z,31.80
2022-08-05T16:34:58.738Z,31.60
2022-08-05T16:38:15.362Z,31.40
2022-08-05T16:40:25.178Z,31.40
2022-08-05T16:42:56.940Z,31.50
2022-08-05T16:46:06.775Z,31.40
2022-08-05T16:48:25.389Z,31.20
2022-08-05T16:50:54.307Z,31.00
2022-08-05T16:53:32.195Z,30.90
2022-08-05T16:56:11.717Z,30.80
2022-08-05T16:58:40.726Z,30.70
2022-08-05T17:01:10.822Z,30.50
2022-08-05T17:03:39.302Z,30.30
2022-08-05T17:06:07.642Z,30.20
2022-08-05T17:08:52.282Z,30.20
2022-08-05T17:11:23.895Z,30.10
2022-08-05T17:14:00.587Z,29.90
2022-08-05T17:16:37.218Z,29.80
2022-08-05T17:19:07.845Z,29.70
2022-08-05T17:21:39.813Z,29.50
2022-08-05T17:24:18.628Z,29.40
2022-08-05T17:26:58.358Z,29.40
2022-08-05T17:29:33.854Z,29.30
2022-08-05T17:32:11.824Z,29.20
2022-08-05T17:34:47.487Z,29.10
2022-08-05T17:37:39.324Z,29.00
2022-08-05T17:40:09.995Z,29.10
2022-08-05T17:42:41.782Z,29.00
2022-08-05T17:45:21.216Z,28.90
2022-08-05T17:47:54.896Z,28.80
2022-08-05T17:50:28.869Z,28.70
2022-08-05T17:53:00.706Z,28.70
2022-08-05T17:55:37.790Z,28.70
2022-08-05T17:58:12.506Z,28.50
2022-08-05T18:00:45.131Z,28.50
2022-08-05T18:03:58.596Z,28.50
2022-08-05T18:06:11.733Z,28.50
2022-08-05T18:08:44.604Z,28.60
2022-08-05T18:11:23.208Z,28.60
2022-08-05T18:13:51.495Z,28.60
2022-08-05T18:16:20.347Z,28.40
2022-08-05T18:18:50.804Z,28.20
2022-08-05T18:21:21.145Z,28.10
2022-08-05T18:23:54.455Z,27.80
2022-08-05T18:26:27.617Z,27.70
2022-08-05T18:28:57.332Z,27.60
2022-08-05T18:31:25.789Z,27.50
2022-08-05T18:34:02.474Z,27.50
2022-08-05T18:36:30.524Z,27.40
2022-08-05T18:38:58.505Z,27.30
2022-08-05T18:41:58.335Z,27.20
2022-08-05T18:44:15.049Z,27.10
2022-08-05T18:47:01.924Z,26.90
2022-08-05T18:49:58.334Z,26.80
2022-08-05T18:52:35.658Z,26.80
2022-08-05T18:55:10.731Z,26.70
2022-08-05T18:57:50.147Z,26.70
2022-08-05T19:00:27.187Z,26.70
2022-08-05T19:02:57.547Z,26.60
2022-08-05T19:06:12.179Z,26.40
2022-08-05T19:08:30.809Z,26.40
2022-08-05T19:11:04.884Z,26.20
2022-08-05T19:13:36.160Z,26.10
2022-08-05T19:16:25.292Z,26.00
2022-08-05T19:18:56.797Z,25.90
2022-08-05T19:21:29.564Z,25.80
2022-08-05T19:24:05.273Z,25.70
2022-08-05T19:26:43.950Z,25.70
2022-08-05T19:29:23.710Z,25.60
2022-08-05T19:31:54.895Z,25.40
2022-08-05T19:34:25.858Z,25.00
2022-08-05T19:36:55.140Z,24.50
2022-08-05T19:39:23.283Z,23.70
2022-08-05T19:42:06.399Z,23.00
2022-08-05T19:44:44.615Z,22.40
2022-08-05T19:47:16.125Z,21.90
2022-08-05T19:49:44.745Z,21.60
2022-08-05T19:52:40.274Z,21.30
2022-08-05T19:55:07.324Z,21.30
2022-08-05T19:58:07.033Z,21.10
2022-08-05T20:00:39.785Z,20.90
2022-08-05T20:03:08.780Z,20.80
2022-08-05T20:05:49.804Z,20.60
2022-08-05T20:08:24.434Z,20.50
2022-08-05T20:10:52.647Z,20.50
2022-08-05T20:13:30.129Z,20.40
2022-08-05T20:16:09.870Z,20.40
2022-08-05T20:18:38.667Z,20.40
2022-08-05T20:21:07.816Z,20.50
2022-08-05T20:23:50.874Z,20.50
2022-08-05T20:26:19.675Z,20.40
2022-08-05T20:28:50.372Z,20.40
2022-08-05T20:31:21.578Z,20.60
2022-08-05T20:33:51.229Z,20.80
2022-08-05T20:36:20.557Z,20.70
2022-08-05T20:38:54.128Z,20.60
2022-08-05T20:41:27.560Z,20.50
2022-08-05T20:44:18.831Z,20.40
2022-08-05T20:46:58.035Z,20.60
2022-08-05T20:49:26.331Z,20.60
2022-08-05T20:51:54.735Z,20.50
2022-08-05T20:54:25.330Z,20.60
2022-08-05T20:56:53.278Z,20.70
2022-08-05T20:59:26.446Z,20.80
2022-08-05T21:01:57.903Z,20.90
2022-08-05T21:04:26.981Z,20.80
2022-08-05T21:06:55.802Z,20.60
2022-08-05T21:09:25.249Z,20.60
2022-08-05T21:12:09.825Z,20.60
2022-08-05T21:14:39.660Z,20.60
2022-08-05T21:17:07.738Z,20.70
2022-08-05T21:19:46.584Z,20.70
2022-08-05T21:22:18.393Z,20.70
2022-08-05T21:24:51.976Z,20.60
2022-08-05T21:27:25.507Z,20.70
2022-08-05T21:29:55.762Z,20.70
2022-08-05T21:32:24.518Z,20.60
2022-08-05T21:35:06.850Z,20.60
2022-08-05T21:37:42.783Z,20.50
2022-08-05T21:40:16.790Z,20.60
2022-08-05T21:42:45.836Z,20.60
2022-08-05T21:45:24.728Z,20.70
2022-08-05T21:47:57.885Z,20.80
2022-08-05T21:50:26.193Z,20.80
2022-08-05T21:52:59.040Z,20.70
2022-08-05T21:56:01.457Z,20.50
2022-08-05T21:58:30.822Z,20.30
2022-08-05T22:01:00.505Z,20.10
2022-08-05T22:03:48.975Z,20.00
2022-08-05T22:06:23.131Z,19.70
2022-08-05T22:09:13.695Z,19.60
2022-08-05T22:11:46.926Z,19.50
2022-08-05T22:14:33.443Z,19.50
2022-08-05T22:17:05.103Z,19.50
2022-08-05T22:20:00.104Z,19.50
2022-08-05T22:22:27.590Z,19.40
2022-08-05T22:25:21.001Z,19.40
2022-08-05T22:28:11.113Z,19.40
2022-08-05T22:30:43.934Z,19.20
2022-08-05T22:33:58.571Z,19.10
2022-08-05T22:36:14.743Z,19.00
2022-08-05T22:38:43.919Z,18.80
2022-08-05T22:41:16.147Z,18.80
2022-08-05T22:44:05.581Z,18.80
2022-08-05T22:46:33.523Z,18.80
2022-08-05T22:49:08.025Z,18.70
2022-08-05T22:52:06.400Z,18.70
2022-08-05T22:54:28.582Z,18.80
2022-08-05T22:56:56.593Z,18.90
2022-08-05T22:59:44.008Z,18.80
2022-08-05T23:02:13.782Z,19.00
2022-08-05T23:04:51.155Z,19.10
2022-08-05T23:07:21.895Z,19.20
2022-08-05T23:09:57.166Z,19.20
2022-08-05T23:12:32.566Z,19.20
2022-08-05T23:15:03.330Z,19.30
2022-08-05T23:17:32.824Z,19.20
2022-08-05T23:20:10.240Z,19.30
2022-08-05T23:22:47.563Z,19.40
2022-08-05T23:25:51.257Z,19.40
2022-08-05T23:28:07.019Z,19.30
2022-08-05T23:30:40.514Z,19.20
2022-08-05T23:33:21.996Z,19.20
2022-08-05T23:35:56.263Z,19.20
2022-08-05T23:38:26.033Z,19.10
2022-08-05T23:40:54.904Z,19.10
2022-08-05T23:43:24.826Z,19.00
2022-08-05T23:46:20.215Z,19.00
2022-08-05T23:49:00.817Z,18.90
2022-08-05T23:51:45.626Z,18.90
2022-08-05T23:54:25.553Z,18.80
2022-08-05T23:56:56.026Z,18.70
2022-08-05T23:59:37.770Z,18.60
